sensor_id;sensor_type;location;lat;lon;timestamp;pressure;altitude;pressure_sealevel;temperature
23208;BMP180;11773;52.570;13.052;2024-02-21T00:01:44;101744.00;;;14.60
23208;BMP180;11773;52.570;13.052;2024-02-21T00:04:14;101742.00;;;14.60
23208;BMP180;11773;52.570;13.052;2024-02-21T00:06:44;101735.00;;;14.60
23208;BMP180;11773;52.570;13.052;2024-02-21T00:09:14;101735.00;;;14.60
23208;BMP180;11773;52.570;13.052;2024-02-21T00:11:44;101723.00;;;14.60
23208;BMP180;11773;52.570;13.052;2024-02-21T00:14:13;101717.00;;;14.60
23208;BMP180;11773;52.570;13.052;2024-02-21T00:16:43;101723.00;;;14.60
23208;BMP180;11773;52.570;13.052;2024-02-21T00:19:12;101724.00;;;14.60
23208;BMP180;11773;52.570;13.052;2024-02-21T00:21:43;101718.00;;;14.60
23208;BMP180;11773;52.570;13.052;2024-02-21T00:24:12;101717.00;;;14.60
23208;BMP180;11773;52.570;13.052;2024-02-21T00:26:42;101720.00;;;14.60
23208;BMP180;11773;52.570;13.052;2024-02-21T00:29:11;101722.00;;;14.50
23208;BMP180;11773;52.570;13.052;2024-02-21T00:31:41;101712.00;;;14.50
23208;BMP180;11773;52.570;13.052;2024-02-21T00:34:13;101715.00;;;14.50
23208;BMP180;11773;52.570;13.052;2024-02-21T00:36:43;101709.00;;;14.50
23208;BMP180;11773;52.570;13.052;2024-02-21T00:39:12;101705.00;;;14.50
23208;BMP180;11773;52.570;13.052;2024-02-21T00:41:42;101700.00;;;14.50
23208;BMP180;11773;52.570;13.052;2024-02-21T00:44:12;101707.00;;;14.50
23208;BMP180;11773;52.570;13.052;2024-02-21T00:46:42;101707.00;;;14.50
23208;BMP180;11773;52.570;13.052;2024-02-21T00:49:11;101698.00;;;14.50
23208;BMP180;11773;52.570;13.052;2024-02-21T00:51:41;101702.00;;;14.50
23208;BMP180;11773;52.570;13.052;2024-02-21T00:54:10;101704.00;;;14.50
23208;BMP180;11773;52.570;13.052;2024-02-21T00:56:40;101691.00;;;14.50
23208;BMP180;11773;52.570;13.052;2024-02-21T00:59:10;101689.00;;;14.50
23208;BMP180;11773;52.570;13.052;2024-02-21T01:01:39;101686.00;;;14.50
23208;BMP180;11773;52.570;13.052;2024-02-21T01:04:11;101691.00;;;14.50
23208;BMP180;11773;52.570;13.052;2024-02-21T01:06:41;101683.00;;;14.50
23208;BMP180;11773;52.570;13.052;2024-02-21T01:09:12;101685.00;;;14.50
23208;BMP180;11773;52.570;13.052;2024-02-21T01:11:42;101686.00;;;14.50
23208;BMP180;11773;52.570;13.052;2024-02-21T01:14:12;101682.00;;;14.50
23208;BMP180;11773;52.570;13.052;2024-02-21T01:16:41;101677.00;;;14.50
23208;BMP180;11773;52.570;13.052;2024-02-21T01:19:11;101687.00;;;14.50
23208;BMP180;11773;52.570;13.052;2024-02-21T01:21:41;101675.00;;;14.50
23208;BMP180;11773;52.570;13.052;2024-02-21T01:24:10;101679.00;;;14.50
23208;BMP180;11773;52.570;13.052;2024-02-21T01:26:40;101670.00;;;14.50
23208;BMP180;11773;52.570;13.052;2024-02-21T01:29:09;101673.00;;;14.50
23208;BMP180;11773;52.570;13.052;2024-02-21T01:31:39;101667.00;;;14.50
23208;BMP180;11773;52.570;13.052;2024-02-21T01:34:09;101661.00;;;14.50
23208;BMP180;11773;52.570;13.052;2024-02-21T01:36:39;101664.00;;;14.50
23208;BMP180;11773;52.570;13.052;2024-02-21T01:39:09;101677.00;;;14.50
23208;BMP180;11773;52.570;13.052;2024-02-21T01:41:39;101665.00;;;14.60
23208;BMP180;11773;52.570;13.052;2024-02-21T01:44:09;101660.00;;;14.50
23208;BMP180;11773;52.570;13.052;2024-02-21T01:46:39;101656.00;;;14.60
23208;BMP180;11773;52.570;13.052;2024-02-21T01:49:09;101654.00;;;14.50
23208;BMP180;11773;52.570;13.052;2024-02-21T01:51:39;101654.00;;;14.60
23208;BMP180;11773;52.570;13.052;2024-02-21T01:54:13;101661.00;;;14.60
23208;BMP180;11773;52.570;13.052;2024-02-21T01:56:44;101653.00;;;14.50
23208;BMP180;11773;52.570;13.052;2024-02-21T01:59:15;101656.00;;;14.50
23208;BMP180;11773;52.570;13.052;2024-02-21T02:01:47;101636.00;;;14.50
23208;BMP180;11773;52.570;13.052;2024-02-21T02:04:16;101642.00;;;14.50
23208;BMP180;11773;52.570;13.052;2024-02-21T02:06:46;101659.00;;;14.50
23208;BMP180;11773;52.570;13.052;2024-02-21T02:09:16;101644.00;;;14.50
23208;BMP180;11773;52.570;13.052;2024-02-21T02:11:46;101636.00;;;14.50
23208;BMP180;11773;52.570;13.052;2024-02-21T02:14:16;101628.00;;;14.50
23208;BMP180;11773;52.570;13.052;2024-02-21T02:16:47;101629.00;;;14.50
23208;BMP180;11773;52.570;13.052;2024-02-21T02:19:17;101630.00;;;14.50
23208;BMP180;11773;52.570;13.052;2024-02-21T02:21:54;101635.00;;;14.50
23208;BMP180;11773;52.570;13.052;2024-02-21T02:24:25;101637.00;;;14.50
23208;BMP180;11773;52.570;13.052;2024-02-21T02:26:55;101621.00;;;14.50
23208;BMP180;11773;52.570;13.052;2024-02-21T02:29:25;101633.00;;;14.50
23208;BMP180;11773;52.570;13.052;2024-02-21T02:31:54;101625.00;;;14.50
23208;BMP180;11773;52.570;13.052;2024-02-21T02:34:24;101607.00;;;14.50
23208;BMP180;11773;52.570;13.052;2024-02-21T02:36:54;101602.00;;;14.50
23208;BMP180;11773;52.570;13.052;2024-02-21T02:39:23;101605.00;;;14.40
23208;BMP180;11773;52.570;13.052;2024-02-21T02:41:53;101599.00;;;14.40
23208;BMP180;11773;52.570;13.052;2024-02-21T02:44:22;101597.00;;;14.40
23208;BMP180;11773;52.570;13.052;2024-02-21T02:46:52;101583.00;;;14.40
23208;BMP180;11773;52.570;13.052;2024-02-21T02:49:22;101600.00;;;14.40
23208;BMP180;11773;52.570;13.052;2024-02-21T02:51:51;101593.00;;;14.40
23208;BMP180;11773;52.570;13.052;2024-02-21T02:54:21;101578.00;;;14.40
23208;BMP180;11773;52.570;13.052;2024-02-21T02:56:50;101579.00;;;14.40
23208;BMP180;11773;52.570;13.052;2024-02-21T02:59:20;101577.00;;;14.40
23208;BMP180;11773;52.570;13.052;2024-02-21T03:01:50;101583.00;;;14.30
23208;BMP180;11773;52.570;13.052;2024-02-21T03:04:19;101574.00;;;14.30
23208;BMP180;11773;52.570;13.052;2024-02-21T03:06:49;101566.00;;;14.30
23208;BMP180;11773;52.570;13.052;2024-02-21T03:09:19;101567.00;;;14.30
23208;BMP180;11773;52.570;13.052;2024-02-21T03:11:48;101565.00;;;14.30
23208;BMP180;11773;52.570;13.052;2024-02-21T03:14:18;101568.00;;;14.20
23208;BMP180;11773;52.570;13.052;2024-02-21T03:16:47;101556.00;;;14.30
23208;BMP180;11773;52.570;13.052;2024-02-21T03:19:17;101574.00;;;14.30
23208;BMP180;11773;52.570;13.052;2024-02-21T03:21:47;101560.00;;;14.20
23208;BMP180;11773;52.570;13.052;2024-02-21T03:24:18;101559.00;;;14.20
23208;BMP180;11773;52.570;13.052;2024-02-21T03:26:48;101549.00;;;14.20
23208;BMP180;11773;52.570;13.052;2024-02-21T03:29:18;101556.00;;;14.20
23208;BMP180;11773;52.570;13.052;2024-02-21T03:31:48;101538.00;;;14.20
23208;BMP180;11773;52.570;13.052;2024-02-21T03:34:18;101537.00;;;14.20
23208;BMP180;11773;52.570;13.052;2024-02-21T03:36:47;101533.00;;;14.20
23208;BMP180;11773;52.570;13.052;2024-02-21T03:39:17;101538.00;;;14.20
23208;BMP180;11773;52.570;13.052;2024-02-21T03:41:46;101542.00;;;14.20
23208;BMP180;11773;52.570;13.052;2024-02-21T03:44:16;101532.00;;;14.20
23208;BMP180;11773;52.570;13.052;2024-02-21T03:46:46;101534.00;;;14.20
23208;BMP180;11773;52.570;13.052;2024-02-21T03:49:15;101547.00;;;14.10
23208;BMP180;11773;52.570;13.052;2024-02-21T03:51:45;101546.00;;;14.20
23208;BMP180;11773;52.570;13.052;2024-02-21T03:54:14;101533.00;;;14.10
23208;BMP180;11773;52.570;13.052;2024-02-21T03:56:44;101513.00;;;14.10
23208;BMP180;11773;52.570;13.052;2024-02-21T03:59:15;101506.00;;;14.10
23208;BMP180;11773;52.570;13.052;2024-02-21T04:01:45;101508.00;;;14.10
23208;BMP180;11773;52.570;13.052;2024-02-21T04:04:15;101506.00;;;14.10
23208;BMP180;11773;52.570;13.052;2024-02-21T04:06:52;101501.00;;;14.10
23208;BMP180;11773;52.570;13.052;2024-02-21T04:09:21;101512.00;;;14.10
23208;BMP180;11773;52.570;13.052;2024-02-21T04:11:51;101501.00;;;14.10
23208;BMP180;11773;52.570;13.052;2024-02-21T04:14:20;101490.00;;;14.10
23208;BMP180;11773;52.570;13.052;2024-02-21T04:16:50;101492.00;;;14.10
23208;BMP180;11773;52.570;13.052;2024-02-21T04:19:19;101489.00;;;14.10
23208;BMP180;11773;52.570;13.052;2024-02-21T04:21:49;101465.00;;;14.00
23208;BMP180;11773;52.570;13.052;2024-02-21T04:24:19;101451.00;;;14.10
23208;BMP180;11773;52.570;13.052;2024-02-21T04:26:48;101444.00;;;14.10
23208;BMP180;11773;52.570;13.052;2024-02-21T04:29:18;101449.00;;;14.10
23208;BMP180;11773;52.570;13.052;2024-02-21T04:31:47;101445.00;;;14.10
23208;BMP180;11773;52.570;13.052;2024-02-21T04:34:17;101438.00;;;14.10
23208;BMP180;11773;52.570;13.052;2024-02-21T04:36:47;101446.00;;;14.10
23208;BMP180;11773;52.570;13.052;2024-02-21T04:39:16;101429.00;;;14.10
23208;BMP180;11773;52.570;13.052;2024-02-21T04:41:46;101432.00;;;14.10
23208;BMP180;11773;52.570;13.052;2024-02-21T04:44:15;101425.00;;;14.10
23208;BMP180;11773;52.570;13.052;2024-02-21T04:46:45;101435.00;;;14.10
23208;BMP180;11773;52.570;13.052;2024-02-21T04:49:15;101426.00;;;14.10
23208;BMP180;11773;52.570;13.052;2024-02-21T04:51:45;101431.00;;;14.10
23208;BMP180;11773;52.570;13.052;2024-02-21T04:54:14;101435.00;;;14.10
23208;BMP180;11773;52.570;13.052;2024-02-21T04:56:44;101448.00;;;14.00
23208;BMP180;11773;52.570;13.052;2024-02-21T04:59:14;101430.00;;;14.00
23208;BMP180;11773;52.570;13.052;2024-02-21T05:01:43;101432.00;;;14.00
23208;BMP180;11773;52.570;13.052;2024-02-21T05:04:13;101418.00;;;14.10
23208;BMP180;11773;52.570;13.052;2024-02-21T05:06:42;101432.00;;;14.10
23208;BMP180;11773;52.570;13.052;2024-02-21T05:09:13;101430.00;;;14.10
23208;BMP180;11773;52.570;13.052;2024-02-21T05:11:43;101414.00;;;14.10
23208;BMP180;11773;52.570;13.052;2024-02-21T05:14:13;101426.00;;;14.10
23208;BMP180;11773;52.570;13.052;2024-02-21T05:16:42;101424.00;;;14.10
23208;BMP180;11773;52.570;13.052;2024-02-21T05:19:12;101419.00;;;14.10
23208;BMP180;11773;52.570;13.052;2024-02-21T05:21:42;101423.00;;;14.10
23208;BMP180;11773;52.570;13.052;2024-02-21T05:24:12;101427.00;;;14.10
23208;BMP180;11773;52.570;13.052;2024-02-21T05:26:41;101433.00;;;14.10
23208;BMP180;11773;52.570;13.052;2024-02-21T05:29:11;101432.00;;;14.10
23208;BMP180;11773;52.570;13.052;2024-02-21T05:34:26;101432.00;;;14.10
23208;BMP180;11773;52.570;13.052;2024-02-21T05:36:56;101410.00;;;14.10
23208;BMP180;11773;52.570;13.052;2024-02-21T05:39:27;101406.00;;;14.10
23208;BMP180;11773;52.570;13.052;2024-02-21T05:41:58;101414.00;;;14.10
23208;BMP180;11773;52.570;13.052;2024-02-21T05:44:27;101409.00;;;14.10
23208;BMP180;11773;52.570;13.052;2024-02-21T05:46:57;101409.00;;;14.10
23208;BMP180;11773;52.570;13.052;2024-02-21T05:49:27;101422.00;;;14.10
23208;BMP180;11773;52.570;13.052;2024-02-21T05:51:56;101404.00;;;14.10
23208;BMP180;11773;52.570;13.052;2024-02-21T05:54:26;101403.00;;;14.10
23208;BMP180;11773;52.570;13.052;2024-02-21T05:56:55;101408.00;;;14.10
23208;BMP180;11773;52.570;13.052;2024-02-21T05:59:25;101408.00;;;14.10
23208;BMP180;11773;52.570;13.052;2024-02-21T06:01:58;101391.00;;;14.10
23208;BMP180;11773;52.570;13.052;2024-02-21T06:04:28;101404.00;;;14.10
23208;BMP180;11773;52.570;13.052;2024-02-21T06:06:57;101385.00;;;14.10
23208;BMP180;11773;52.570;13.052;2024-02-21T06:09:27;101386.00;;;14.10
23208;BMP180;11773;52.570;13.052;2024-02-21T06:11:57;101388.00;;;14.10
23208;BMP180;11773;52.570;13.052;2024-02-21T06:14:27;101383.00;;;14.10
23208;BMP180;11773;52.570;13.052;2024-02-21T06:16:56;101380.00;;;14.10
23208;BMP180;11773;52.570;13.052;2024-02-21T06:19:26;101386.00;;;14.10
23208;BMP180;11773;52.570;13.052;2024-02-21T06:21:56;101389.00;;;14.10
23208;BMP180;11773;52.570;13.052;2024-02-21T06:24:26;101386.00;;;14.10
23208;BMP180;11773;52.570;13.052;2024-02-21T06:26:55;101382.00;;;14.10
23208;BMP180;11773;52.570;13.052;2024-02-21T06:29:25;101386.00;;;14.10
23208;BMP180;11773;52.570;13.052;2024-02-21T06:31:55;101392.00;;;14.10
23208;BMP180;11773;52.570;13.052;2024-02-21T06:34:24;101390.00;;;14.10
23208;BMP180;11773;52.570;13.052;2024-02-21T06:36:55;101396.00;;;14.10
23208;BMP180;11773;52.570;13.052;2024-02-21T06:39:25;101390.00;;;14.10
23208;BMP180;11773;52.570;13.052;2024-02-21T06:41:56;101401.00;;;14.10
23208;BMP180;11773;52.570;13.052;2024-02-21T06:44:27;101400.00;;;14.10
23208;BMP180;11773;52.570;13.052;2024-02-21T06:46:57;101390.00;;;14.10
23208;BMP180;11773;52.570;13.052;2024-02-21T06:49:28;101404.00;;;14.10
23208;BMP180;11773;52.570;13.052;2024-02-21T06:51:58;101399.00;;;14.10
23208;BMP180;11773;52.570;13.052;2024-02-21T06:54:27;101396.00;;;14.10
23208;BMP180;11773;52.570;13.052;2024-02-21T06:56:57;101397.00;;;14.10
23208;BMP180;11773;52.570;13.052;2024-02-21T06:59:27;101393.00;;;14.10
23208;BMP180;11773;52.570;13.052;2024-02-21T07:01:56;101378.00;;;14.10
23208;BMP180;11773;52.570;13.052;2024-02-21T07:04:26;101386.00;;;14.10
23208;BMP180;11773;52.570;13.052;2024-02-21T07:06:57;101401.00;;;14.10
23208;BMP180;11773;52.570;13.052;2024-02-21T07:09:27;101410.00;;;14.10
23208;BMP180;11773;52.570;13.052;2024-02-21T07:12:01;101388.00;;;14.10
23208;BMP180;11773;52.570;13.052;2024-02-21T07:14:37;101387.00;;;14.10
23208;BMP180;11773;52.570;13.052;2024-02-21T07:17:06;101385.00;;;14.10
23208;BMP180;11773;52.570;13.052;2024-02-21T07:19:36;101378.00;;;14.10
23208;BMP180;11773;52.570;13.052;2024-02-21T07:22:06;101397.00;;;14.20
23208;BMP180;11773;52.570;13.052;2024-02-21T07:24:35;101377.00;;;14.10
23208;BMP180;11773;52.570;13.052;2024-02-21T07:27:06;101390.00;;;14.10
23208;BMP180;11773;52.570;13.052;2024-02-21T07:29:35;101378.00;;;14.20
23208;BMP180;11773;52.570;13.052;2024-02-21T07:32:05;101393.00;;;14.10
23208;BMP180;11773;52.570;13.052;2024-02-21T07:34:35;101379.00;;;14.10
23208;BMP180;11773;52.570;13.052;2024-02-21T07:37:05;101402.00;;;14.20
23208;BMP180;11773;52.570;13.052;2024-02-21T07:39:36;101389.00;;;14.20
23208;BMP180;11773;52.570;13.052;2024-02-21T07:42:06;101387.00;;;14.20
23208;BMP180;11773;52.570;13.052;2024-02-21T07:44:35;101388.00;;;14.20
23208;BMP180;11773;52.570;13.052;2024-02-21T07:47:05;101397.00;;;14.20
23208;BMP180;11773;52.570;13.052;2024-02-21T07:49:44;101378.00;;;14.20
23208;BMP180;11773;52.570;13.052;2024-02-21T07:52:14;101390.00;;;14.20
23208;BMP180;11773;52.570;13.052;2024-02-21T07:54:44;101382.00;;;14.20
23208;BMP180;11773;52.570;13.052;2024-02-21T07:57:13;101386.00;;;14.20
23208;BMP180;11773;52.570;13.052;2024-02-21T07:59:43;101393.00;;;14.30
23208;BMP180;11773;52.570;13.052;2024-02-21T08:02:14;101383.00;;;14.30
23208;BMP180;11773;52.570;13.052;2024-02-21T08:04:43;101385.00;;;14.30
23208;BMP180;11773;52.570;13.052;2024-02-21T08:07:13;101391.00;;;14.30
23208;BMP180;11773;52.570;13.052;2024-02-21T08:09:43;101398.00;;;14.30
23208;BMP180;11773;52.570;13.052;2024-02-21T08:12:12;101378.00;;;14.30
23208;BMP180;11773;52.570;13.052;2024-02-21T08:14:42;101390.00;;;14.40
23208;BMP180;11773;52.570;13.052;2024-02-21T08:17:12;101377.00;;;14.40
23208;BMP180;11773;52.570;13.052;2024-02-21T08:19:41;101378.00;;;14.40
23208;BMP180;11773;52.570;13.052;2024-02-21T08:22:11;101376.00;;;14.40
23208;BMP180;11773;52.570;13.052;2024-02-21T08:24:41;101364.00;;;14.40
23208;BMP180;11773;52.570;13.052;2024-02-21T08:27:10;101372.00;;;14.40
23208;BMP180;11773;52.570;13.052;2024-02-21T08:29:40;101376.00;;;14.50
23208;BMP180;11773;52.570;13.052;2024-02-21T08:32:09;101391.00;;;14.50
23208;BMP180;11773;52.570;13.052;2024-02-21T08:34:39;101392.00;;;14.50
23208;BMP180;11773;52.570;13.052;2024-02-21T08:37:09;101378.00;;;14.50
23208;BMP180;11773;52.570;13.052;2024-02-21T08:39:39;101376.00;;;14.60
23208;BMP180;11773;52.570;13.052;2024-02-21T08:42:09;101380.00;;;14.60
23208;BMP180;11773;52.570;13.052;2024-02-21T08:44:40;101378.00;;;14.60
23208;BMP180;11773;52.570;13.052;2024-02-21T08:47:11;101392.00;;;14.60
23208;BMP180;11773;52.570;13.052;2024-02-21T08:49:41;101397.00;;;14.60
23208;BMP180;11773;52.570;13.052;2024-02-21T08:52:11;101382.00;;;14.70
23208;BMP180;11773;52.570;13.052;2024-02-21T08:54:40;101381.00;;;14.70
23208;BMP180;11773;52.570;13.052;2024-02-21T08:57:10;101372.00;;;14.70
23208;BMP180;11773;52.570;13.052;2024-02-21T08:59:40;101381.00;;;14.70
23208;BMP180;11773;52.570;13.052;2024-02-21T09:02:10;101369.00;;;14.70
23208;BMP180;11773;52.570;13.052;2024-02-21T09:04:39;101379.00;;;14.70
23208;BMP180;11773;52.570;13.052;2024-02-21T09:07:09;101381.00;;;14.70
23208;BMP180;11773;52.570;13.052;2024-02-21T09:09:39;101384.00;;;14.80
23208;BMP180;11773;52.570;13.052;2024-02-21T09:12:08;101381.00;;;14.80
23208;BMP180;11773;52.570;13.052;2024-02-21T09:14:38;101373.00;;;14.80
23208;BMP180;11773;52.570;13.052;2024-02-21T09:17:08;101377.00;;;14.80
23208;BMP180;11773;52.570;13.052;2024-02-21T09:19:37;101371.00;;;14.80
23208;BMP180;11773;52.570;13.052;2024-02-21T09:22:07;101361.00;;;14.90
23208;BMP180;11773;52.570;13.052;2024-02-21T09:24:37;101359.00;;;14.90
23208;BMP180;11773;52.570;13.052;2024-02-21T09:27:06;101356.00;;;14.90
23208;BMP180;11773;52.570;13.052;2024-02-21T09:29:36;101364.00;;;15.00
23208;BMP180;11773;52.570;13.052;2024-02-21T09:32:06;101355.00;;;15.00
23208;BMP180;11773;52.570;13.052;2024-02-21T09:34:35;101372.00;;;15.00
23208;BMP180;11773;52.570;13.052;2024-02-21T09:37:05;101366.00;;;15.00
23208;BMP180;11773;52.570;13.052;2024-02-21T09:39:35;101358.00;;;15.10
23208;BMP180;11773;52.570;13.052;2024-02-21T09:42:06;101363.00;;;15.10
23208;BMP180;11773;52.570;13.052;2024-02-21T09:44:38;101350.00;;;15.10
23208;BMP180;11773;52.570;13.052;2024-02-21T09:47:17;101366.00;;;15.10
23208;BMP180;11773;52.570;13.052;2024-02-21T09:49:44;101368.00;;;15.20
23208;BMP180;11773;52.570;13.052;2024-02-21T09:52:15;101364.00;;;15.20
23208;BMP180;11773;52.570;13.052;2024-02-21T09:54:46;101361.00;;;15.20
23208;BMP180;11773;52.570;13.052;2024-02-21T09:57:17;101361.00;;;15.20
23208;BMP180;11773;52.570;13.052;2024-02-21T09:59:47;101357.00;;;15.20
23208;BMP180;11773;52.570;13.052;2024-02-21T10:02:18;101352.00;;;15.20
23208;BMP180;11773;52.570;13.052;2024-02-21T10:04:48;101368.00;;;15.20
23208;BMP180;11773;52.570;13.052;2024-02-21T10:07:18;101365.00;;;15.30
23208;BMP180;11773;52.570;13.052;2024-02-21T10:09:50;101357.00;;;15.30
23208;BMP180;11773;52.570;13.052;2024-02-21T10:12:21;101357.00;;;15.30
23208;BMP180;11773;52.570;13.052;2024-02-21T10:15:03;101367.00;;;15.40
23208;BMP180;11773;52.570;13.052;2024-02-21T10:17:34;101352.00;;;15.40
23208;BMP180;11773;52.570;13.052;2024-02-21T10:20:12;101345.00;;;15.40
23208;BMP180;11773;52.570;13.052;2024-02-21T10:22:42;101358.00;;;15.40
23208;BMP180;11773;52.570;13.052;2024-02-21T10:25:14;101374.00;;;15.50
23208;BMP180;11773;52.570;13.052;2024-02-21T10:27:43;101365.00;;;15.50
23208;BMP180;11773;52.570;13.052;2024-02-21T10:30:16;101370.00;;;15.50
23208;BMP180;11773;52.570;13.052;2024-02-21T10:32:54;101374.00;;;15.50
23208;BMP180;11773;52.570;13.052;2024-02-21T10:35:32;101379.00;;;15.50
23208;BMP180;11773;52.570;13.052;2024-02-21T10:38:02;101375.00;;;15.50
23208;BMP180;11773;52.570;13.052;2024-02-21T10:40:32;101380.00;;;15.50
23208;BMP180;11773;52.570;13.052;2024-02-21T10:43:02;101350.00;;;15.50
23208;BMP180;11773;52.570;13.052;2024-02-21T10:45:35;101370.00;;;15.50
23208;BMP180;11773;52.570;13.052;2024-02-21T10:48:15;101352.00;;;15.50
23208;BMP180;11773;52.570;13.052;2024-02-21T10:53:58;101349.00;;;15.50
23208;BMP180;11773;52.570;13.052;2024-02-21T10:56:36;101358.00;;;15.50
23208;BMP180;11773;52.570;13.052;2024-02-21T10:59:08;101341.00;;;15.60
23208;BMP180;11773;52.570;13.052;2024-02-21T11:01:38;101331.00;;;15.60
23208;BMP180;11773;52.570;13.052;2024-02-21T11:04:10;101330.00;;;15.60
23208;BMP180;11773;52.570;13.052;2024-02-21T11:06:42;101329.00;;;15.70
23208;BMP180;11773;52.570;13.052;2024-02-21T11:09:12;101317.00;;;15.70
23208;BMP180;11773;52.570;13.052;2024-02-21T11:11:44;101303.00;;;15.70
23208;BMP180;11773;52.570;13.052;2024-02-21T11:14:21;101305.00;;;15.80
23208;BMP180;11773;52.570;13.052;2024-02-21T11:16:51;101294.00;;;15.80
23208;BMP180;11773;52.570;13.052;2024-02-21T11:19:29;101285.00;;;15.80
23208;BMP180;11773;52.570;13.052;2024-02-21T11:21:59;101294.00;;;15.90
23208;BMP180;11773;52.570;13.052;2024-02-21T11:24:34;101276.00;;;15.90
23208;BMP180;11773;52.570;13.052;2024-02-21T11:27:20;101275.00;;;16.00
23208;BMP180;11773;52.570;13.052;2024-02-21T11:29:57;101281.00;;;16.10
23208;BMP180;11773;52.570;13.052;2024-02-21T11:32:27;101270.00;;;16.10
23208;BMP180;11773;52.570;13.052;2024-02-21T11:35:03;101258.00;;;16.20
23208;BMP180;11773;52.570;13.052;2024-02-21T11:37:36;101265.00;;;16.20
23208;BMP180;11773;52.570;13.052;2024-02-21T11:40:06;101255.00;;;16.20
23208;BMP180;11773;52.570;13.052;2024-02-21T11:42:37;101251.00;;;16.30
23208;BMP180;11773;52.570;13.052;2024-02-21T11:45:08;101243.00;;;16.30
23208;BMP180;11773;52.570;13.052;2024-02-21T11:47:38;101247.00;;;16.30
23208;BMP180;11773;52.570;13.052;2024-02-21T11:50:12;101241.00;;;16.40
23208;BMP180;11773;52.570;13.052;2024-02-21T11:52:44;101249.00;;;16.40
23208;BMP180;11773;52.570;13.052;2024-02-21T11:55:14;101256.00;;;16.40
23208;BMP180;11773;52.570;13.052;2024-02-21T11:57:43;101248.00;;;16.50
23208;BMP180;11773;52.570;13.052;2024-02-21T12:00:17;101235.00;;;16.50
23208;BMP180;11773;52.570;13.052;2024-02-21T12:02:53;101230.00;;;16.50
23208;BMP180;11773;52.570;13.052;2024-02-21T12:05:26;101220.00;;;16.50
23208;BMP180;11773;52.570;13.052;2024-02-21T12:07:58;101212.00;;;16.60
23208;BMP180;11773;52.570;13.052;2024-02-21T12:10:28;101219.00;;;16.60
23208;BMP180;11773;52.570;13.052;2024-02-21T12:13:08;101201.00;;;16.60
23208;BMP180;11773;52.570;13.052;2024-02-21T12:15:39;101212.00;;;16.60
23208;BMP180;11773;52.570;13.052;2024-02-21T12:18:11;101197.00;;;16.70
23208;BMP180;11773;52.570;13.052;2024-02-21T12:20:40;101200.00;;;16.70
23208;BMP180;11773;52.570;13.052;2024-02-21T12:23:11;101186.00;;;16.80
23208;BMP180;11773;52.570;13.052;2024-02-21T12:25:41;101186.00;;;16.80
23208;BMP180;11773;52.570;13.052;2024-02-21T12:28:11;101178.00;;;16.80
23208;BMP180;11773;52.570;13.052;2024-02-21T12:30:41;101192.00;;;16.80
23208;BMP180;11773;52.570;13.052;2024-02-21T12:33:11;101182.00;;;16.90
23208;BMP180;11773;52.570;13.052;2024-02-21T12:35:42;101177.00;;;16.90
23208;BMP180;11773;52.570;13.052;2024-02-21T12:38:12;101170.00;;;17.00
23208;BMP180;11773;52.570;13.052;2024-02-21T12:40:42;101162.00;;;17.00
23208;BMP180;11773;52.570;13.052;2024-02-21T12:43:12;101174.00;;;17.00
23208;BMP180;11773;52.570;13.052;2024-02-21T12:45:43;101162.00;;;17.00
23208;BMP180;11773;52.570;13.052;2024-02-21T12:48:12;101171.00;;;17.10
23208;BMP180;11773;52.570;13.052;2024-02-21T12:50:52;101151.00;;;17.10
23208;BMP180;11773;52.570;13.052;2024-02-21T12:53:22;101148.00;;;17.10
23208;BMP180;11773;52.570;13.052;2024-02-21T12:55:54;101156.00;;;17.20
23208;BMP180;11773;52.570;13.052;2024-02-21T12:58:25;101153.00;;;17.20
23208;BMP180;11773;52.570;13.052;2024-02-21T13:00:55;101146.00;;;17.20
23208;BMP180;11773;52.570;13.052;2024-02-21T13:03:24;101151.00;;;17.20
23208;BMP180;11773;52.570;13.052;2024-02-21T13:05:56;101142.00;;;17.30
23208;BMP180;11773;52.570;13.052;2024-02-21T13:08:27;101150.00;;;17.30
23208;BMP180;11773;52.570;13.052;2024-02-21T13:10:57;101122.00;;;17.40
23208;BMP180;11773;52.570;13.052;2024-02-21T13:13:27;101118.00;;;17.40
23208;BMP180;11773;52.570;13.052;2024-02-21T13:15:58;101111.00;;;17.40
23208;BMP180;11773;52.570;13.052;2024-02-21T13:18:28;101110.00;;;17.40
23208;BMP180;11773;52.570;13.052;2024-02-21T13:20:58;101129.00;;;17.40
23208;BMP180;11773;52.570;13.052;2024-02-21T13:23:27;101111.00;;;17.50
23208;BMP180;11773;52.570;13.052;2024-02-21T13:25:57;101106.00;;;17.50
23208;BMP180;11773;52.570;13.052;2024-02-21T13:28:27;101096.00;;;17.50
23208;BMP180;11773;52.570;13.052;2024-02-21T13:30:56;101107.00;;;17.50
23208;BMP180;11773;52.570;13.052;2024-02-21T13:33:26;101111.00;;;17.50
23208;BMP180;11773;52.570;13.052;2024-02-21T13:35:57;101095.00;;;17.50
23208;BMP180;11773;52.570;13.052;2024-02-21T13:38:27;101104.00;;;17.60
23208;BMP180;11773;52.570;13.052;2024-02-21T13:40:56;101096.00;;;17.60
23208;BMP180;11773;52.570;13.052;2024-02-21T13:43:26;101091.00;;;17.60
23208;BMP180;11773;52.570;13.052;2024-02-21T13:45:59;101091.00;;;17.60
23208;BMP180;11773;52.570;13.052;2024-02-21T13:48:31;101089.00;;;17.60
23208;BMP180;11773;52.570;13.052;2024-02-21T13:51:02;101084.00;;;17.60
23208;BMP180;11773;52.570;13.052;2024-02-21T13:53:31;101091.00;;;17.60
23208;BMP180;11773;52.570;13.052;2024-02-21T13:56:03;101099.00;;;17.60
23208;BMP180;11773;52.570;13.052;2024-02-21T13:58:32;101085.00;;;17.60
23208;BMP180;11773;52.570;13.052;2024-02-21T14:01:02;101082.00;;;17.60
23208;BMP180;11773;52.570;13.052;2024-02-21T14:03:32;101087.00;;;17.60
23208;BMP180;11773;52.570;13.052;2024-02-21T14:06:02;101096.00;;;17.60
23208;BMP180;11773;52.570;13.052;2024-02-21T14:08:32;101084.00;;;17.60